sensor_id;sensor_type;location;lat;lon;timestamp;pressure;altitude;pressure_sealevel;temperature;humidity
56334;BME280;42240;53.626;55.886;2022-11-15T00:00:21;76671.50;;;-145.10;100.00
56334;BME280;42240;53.626;55.886;2022-11-15T00:02:13;76675.44;;;-145.10;100.00
56334;BME280;42240;53.626;55.886;2022-11-15T00:04:05;76683.34;;;-145.10;100.00
56334;BME280;42240;53.626;55.886;2022-11-15T00:06:02;76673.47;;;-145.10;100.00
56334;BME280;42240;53.626;55.886;2022-11-15T00:07:54;76683.34;;;-145.10;100.00
56334;BME280;42240;53.626;55.886;2022-11-15T00:09:46;76669.50;;;-145.10;100.00
56334;BME280;42240;53.626;55.886;2022-11-15T00:11:37;76675.44;;;-145.10;100.00
56334;BME280;42240;53.626;55.886;2022-11-15T00:13:29;76675.44;;;-145.10;100.00
56334;BME280;42240;53.626;55.886;2022-11-15T00:15:21;76683.34;;;-145.10;100.00
56334;BME280;42240;53.626;55.886;2022-11-15T00:17:12;76681.38;;;-145.10;100.00
56334;BME280;42240;53.626;55.886;2022-11-15T00:19:04;76687.31;;;-145.10;100.00
56334;BME280;42240;53.626;55.886;2022-11-15T00:20:56;76679.41;;;-145.10;100.00
56334;BME280;42240;53.626;55.886;2022-11-15T00:22:47;76697.19;;;-145.10;100.00
56334;BME280;42240;53.626;55.886;2022-11-15T00:24:39;76691.25;;;-145.10;100.00
56334;BME280;42240;53.626;55.886;2022-11-15T00:26:30;76715.00;;;-145.10;100.00
56334;BME280;42240;53.626;55.886;2022-11-15T00:28:21;76703.13;;;-145.10;100.00
56334;BME280;42240;53.626;55.886;2022-11-15T00:30:13;76695.22;;;-145.10;100.00
56334;BME280;42240;53.626;55.886;2022-11-15T00:32:04;76715.00;;;-145.10;100.00
56334;BME280;42240;53.626;55.886;2022-11-15T00:33:56;76695.22;;;-145.10;100.00
56334;BME280;42240;53.626;55.886;2022-11-15T00:35:48;76697.19;;;-145.10;100.00
56334;BME280;42240;53.626;55.886;2022-11-15T00:37:39;76691.25;;;-145.10;100.00
56334;BME280;42240;53.626;55.886;2022-11-15T00:39:30;76695.22;;;-145.10;100.00
56334;BME280;42240;53.626;55.886;2022-11-15T00:41:22;76695.22;;;-145.10;100.00
56334;BME280;42240;53.626;55.886;2022-11-15T00:43:14;76705.09;;;-145.10;100.00
56334;BME280;42240;53.626;55.886;2022-11-15T00:45:05;76707.09;;;-145.10;100.00
56334;BME280;42240;53.626;55.886;2022-11-15T00:46:57;76715.00;;;-145.10;100.00
56334;BME280;42240;53.626;55.886;2022-11-15T00:48:48;76709.06;;;-145.10;100.00
56334;BME280;42240;53.626;55.886;2022-11-15T00:50:40;76707.09;;;-145.10;100.00
56334;BME280;42240;53.626;55.886;2022-11-15T00:52:32;76715.00;;;-145.10;100.00
56334;BME280;42240;53.626;55.886;2022-11-15T00:54:23;76711.03;;;-145.10;100.00
56334;BME280;42240;53.626;55.886;2022-11-15T00:56:14;76709.06;;;-145.10;100.00
56334;BME280;42240;53.626;55.886;2022-11-15T00:58:05;76720.94;;;-145.10;100.00
56334;BME280;42240;53.626;55.886;2022-11-15T00:59:57;76734.78;;;-145.10;100.00
56334;BME280;42240;53.626;55.886;2022-11-15T01:01:49;76718.94;;;-145.10;100.00
56334;BME280;42240;53.626;55.886;2022-11-15T01:03:40;76726.84;;;-145.10;100.00
56334;BME280;42240;53.626;55.886;2022-11-15T01:05:32;76728.84;;;-145.10;100.00
56334;BME280;42240;53.626;55.886;2022-11-15T01:07:24;76738.72;;;-145.10;100.00
56334;BME280;42240;53.626;55.886;2022-11-15T01:09:15;76728.84;;;-145.10;100.00
56334;BME280;42240;53.626;55.886;2022-11-15T01:11:09;76726.84;;;-145.10;100.00
56334;BME280;42240;53.626;55.886;2022-11-15T01:13:01;76724.88;;;-145.10;100.00
56334;BME280;42240;53.626;55.886;2022-11-15T01:14:52;76734.78;;;-145.10;100.00
56334;BME280;42240;53.626;55.886;2022-11-15T01:16:44;76726.84;;;-145.10;100.00
56334;BME280;42240;53.626;55.886;2022-11-15T01:18:36;76730.81;;;-145.10;100.00
56334;BME280;42240;53.626;55.886;2022-11-15T01:20:27;76742.69;;;-145.10;100.00
56334;BME280;42240;53.626;55.886;2022-11-15T01:22:19;76738.72;;;-145.10;100.00
56334;BME280;42240;53.626;55.886;2022-11-15T01:24:13;76730.81;;;-145.10;100.00
56334;BME280;42240;53.626;55.886;2022-11-15T01:26:07;76742.69;;;-145.10;100.00
56334;BME280;42240;53.626;55.886;2022-11-15T01:28:00;76738.72;;;-145.10;100.00
56334;BME280;42240;53.626;55.886;2022-11-15T01:29:52;76744.66;;;-145.10;100.00
56334;BME280;42240;53.626;55.886;2022-11-15T01:31:43;76742.69;;;-145.10;100.00
56334;BME280;42240;53.626;55.886;2022-11-15T01:33:35;76750.59;;;-145.10;100.00
56334;BME280;42240;53.626;55.886;2022-11-15T01:35:27;76752.56;;;-145.10;100.00
56334;BME280;42240;53.626;55.886;2022-11-15T01:37:20;76750.59;;;-145.10;100.00
56334;BME280;42240;53.626;55.886;2022-11-15T01:39:11;76752.56;;;-145.10;100.00
56334;BME280;42240;53.626;55.886;2022-11-15T01:41:03;76754.53;;;-145.10;100.00
56334;BME280;42240;53.626;55.886;2022-11-15T01:42:55;76752.56;;;-145.10;100.00
56334;BME280;42240;53.626;55.886;2022-11-15T01:44:48;76762.44;;;-145.10;100.00
56334;BME280;42240;53.626;55.886;2022-11-15T01:46:46;76762.44;;;-145.10;100.00
56334;BME280;42240;53.626;55.886;2022-11-15T01:48:38;76766.41;;;-145.10;100.00
56334;BME280;42240;53.626;55.886;2022-11-15T01:50:31;76770.38;;;-145.10;100.00
56334;BME280;42240;53.626;55.886;2022-11-15T01:52:25;76774.31;;;-145.10;100.00
56334;BME280;42240;53.626;55.886;2022-11-15T01:54:17;76768.38;;;-145.10;100.00
56334;BME280;42240;53.626;55.886;2022-11-15T01:56:14;76776.28;;;-145.10;100.00
56334;BME280;42240;53.626;55.886;2022-11-15T01:58:07;76768.38;;;-145.10;100.00
56334;BME280;42240;53.626;55.886;2022-11-15T02:00:00;76770.38;;;-145.10;100.00
56334;BME280;42240;53.626;55.886;2022-11-15T02:01:52;76780.25;;;-145.10;100.00
56334;BME280;42240;53.626;55.886;2022-11-15T02:03:51;76778.28;;;-145.10;100.00
56334;BME280;42240;53.626;55.886;2022-11-15T02:05:43;76778.28;;;-145.10;100.00
56334;BME280;42240;53.626;55.886;2022-11-15T02:07:36;76782.22;;;-145.10;100.00
56334;BME280;42240;53.626;55.886;2022-11-15T02:09:28;76776.28;;;-145.10;100.00
56334;BME280;42240;53.626;55.886;2022-11-15T02:11:20;76776.28;;;-145.10;100.00
56334;BME280;42240;53.626;55.886;2022-11-15T02:13:15;76794.09;;;-145.10;100.00
56334;BME280;42240;53.626;55.886;2022-11-15T02:15:08;76788.16;;;-145.10;100.00
56334;BME280;42240;53.626;55.886;2022-11-15T02:24:25;76784.22;;;-145.10;100.00
56334;BME280;42240;53.626;55.886;2022-11-15T02:27:10;76800.03;;;-145.10;100.00
56334;BME280;42240;53.626;55.886;2022-11-15T02:29:07;76800.03;;;-145.10;100.00
56334;BME280;42240;53.626;55.886;2022-11-15T02:31:04;76805.97;;;-145.10;100.00
56334;BME280;42240;53.626;55.886;2022-11-15T02:35:12;76809.91;;;-145.10;100.00
56334;BME280;42240;53.626;55.886;2022-11-15T02:41:43;76802.00;;;-145.10;100.00
56334;BME280;42240;53.626;55.886;2022-11-15T02:45:56;76800.03;;;-145.10;100.00
56334;BME280;42240;53.626;55.886;2022-11-15T02:47:52;76807.94;;;-145.10;100.00
56334;BME280;42240;53.626;55.886;2022-11-15T02:49:50;76807.94;;;-145.10;100.00
56334;BME280;42240;53.626;55.886;2022-11-15T02:51:44;76829.69;;;-145.10;100.00
56334;BME280;42240;53.626;55.886;2022-11-15T02:53:37;76809.91;;;-145.10;100.00
56334;BME280;42240;53.626;55.886;2022-11-15T02:55:48;76798.03;;;-145.10;100.00
56334;BME280;42240;53.626;55.886;2022-11-15T03:00:06;76819.81;;;-145.10;100.00
56334;BME280;42240;53.626;55.886;2022-11-15T03:04:18;76817.81;;;-145.10;100.00
56334;BME280;42240;53.626;55.886;2022-11-15T03:14:36;76841.56;;;-145.10;100.00
56334;BME280;42240;53.626;55.886;2022-11-15T03:16:40;76841.56;;;-145.10;100.00
56334;BME280;42240;53.626;55.886;2022-11-15T03:18:40;76835.63;;;-145.10;100.00
56334;BME280;42240;53.626;55.886;2022-11-15T03:20:33;76835.63;;;-145.10;100.00
56334;BME280;42240;53.626;55.886;2022-11-15T03:22:28;76845.50;;;-145.10;100.00
56334;BME280;42240;53.626;55.886;2022-11-15T03:24:21;76845.50;;;-145.10;100.00
56334;BME280;42240;53.626;55.886;2022-11-15T03:26:16;76857.38;;;-145.10;100.00
56334;BME280;42240;53.626;55.886;2022-11-15T03:28:12;76857.38;;;-145.10;100.00
56334;BME280;42240;53.626;55.886;2022-11-15T03:30:07;76861.34;;;-145.10;100.00
56334;BME280;42240;53.626;55.886;2022-11-15T03:32:09;76855.41;;;-145.10;100.00
56334;BME280;42240;53.626;55.886;2022-11-15T03:34:04;76869.25;;;-145.10;100.00
56334;BME280;42240;53.626;55.886;2022-11-15T03:35:57;76873.19;;;-145.10;100.00
56334;BME280;42240;53.626;55.886;2022-11-15T03:38:14;76867.25;;;-145.10;100.00
56334;BME280;42240;53.626;55.886;2022-11-15T03:40:08;76865.28;;;-145.10;100.00
56334;BME280;42240;53.626;55.886;2022-11-15T03:42:12;76900.88;;;-145.10;100.00
56334;BME280;42240;53.626;55.886;2022-11-15T03:44:24;76873.19;;;-145.10;100.00
56334;BME280;42240;53.626;55.886;2022-11-15T03:46:31;76891.00;;;-145.10;100.00
56334;BME280;42240;53.626;55.886;2022-11-15T03:48:26;76879.13;;;-145.10;100.00
56334;BME280;42240;53.626;55.886;2022-11-15T03:50:22;76891.00;;;-145.10;100.00
56334;BME280;42240;53.626;55.886;2022-11-15T03:52:17;76912.75;;;-145.10;100.00
56334;BME280;42240;53.626;55.886;2022-11-15T03:54:11;76904.84;;;-145.10;100.00
56334;BME280;42240;53.626;55.886;2022-11-15T03:56:03;76892.97;;;-145.10;100.00
56334;BME280;42240;53.626;55.886;2022-11-15T03:57:58;76900.88;;;-145.10;100.00
56334;BME280;42240;53.626;55.886;2022-11-15T03:59:50;76902.84;;;-145.10;100.00
56334;BME280;42240;53.626;55.886;2022-11-15T04:01:41;76892.97;;;-145.10;100.00
56334;BME280;42240;53.626;55.886;2022-11-15T04:03:33;76896.94;;;-145.10;100.00
56334;BME280;42240;53.626;55.886;2022-11-15T04:05:24;76896.94;;;-145.10;100.00
56334;BME280;42240;53.626;55.886;2022-11-15T04:07:16;76898.91;;;-145.10;100.00
56334;BME280;42240;53.626;55.886;2022-11-15T04:09:08;76908.78;;;-145.10;100.00
56334;BME280;42240;53.626;55.886;2022-11-15T04:10:59;76904.84;;;-145.10;100.00
56334;BME280;42240;53.626;55.886;2022-11-15T04:12:52;76898.91;;;-145.10;100.00
56334;BME280;42240;53.626;55.886;2022-11-15T04:14:44;76900.88;;;-145.10;100.00
56334;BME280;42240;53.626;55.886;2022-11-15T04:16:55;76896.94;;;-145.10;100.00
56334;BME280;42240;53.626;55.886;2022-11-15T04:18:46;76908.78;;;-145.10;100.00
56334;BME280;42240;53.626;55.886;2022-11-15T04:20:58;76914.72;;;-145.10;100.00
56334;BME280;42240;53.626;55.886;2022-11-15T04:23:18;76924.59;;;-145.10;100.00
56334;BME280;42240;53.626;55.886;2022-11-15T04:25:29;76900.88;;;-145.10;100.00
56334;BME280;42240;53.626;55.886;2022-11-15T04:27:22;76908.78;;;-145.10;100.00
56334;BME280;42240;53.626;55.886;2022-11-15T04:29:13;76922.63;;;-145.10;100.00
56334;BME280;42240;53.626;55.886;2022-11-15T04:31:23;76896.94;;;-145.10;100.00
56334;BME280;42240;53.626;55.886;2022-11-15T04:33:15;76896.94;;;-145.10;100.00
56334;BME280;42240;53.626;55.886;2022-11-15T04:35:07;76902.84;;;-145.10;100.00
56334;BME280;42240;53.626;55.886;2022-11-15T04:36:59;76892.97;;;-145.10;100.00
56334;BME280;42240;53.626;55.886;2022-11-15T04:39:03;76885.06;;;-145.10;100.00
56334;BME280;42240;53.626;55.886;2022-11-15T04:40:55;76885.06;;;-145.10;100.00
56334;BME280;42240;53.626;55.886;2022-11-15T04:42:46;76885.06;;;-145.10;100.00
56334;BME280;42240;53.626;55.886;2022-11-15T04:44:37;76896.94;;;-145.10;100.00
56334;BME280;42240;53.626;55.886;2022-11-15T04:46:29;76894.94;;;-145.10;100.00
56334;BME280;42240;53.626;55.886;2022-11-15T04:48:20;76902.84;;;-145.10;100.00
56334;BME280;42240;53.626;55.886;2022-11-15T04:50:14;76894.94;;;-145.10;100.00
56334;BME280;42240;53.626;55.886;2022-11-15T04:52:05;76885.06;;;-145.10;100.00
56334;BME280;42240;53.626;55.886;2022-11-15T04:53:57;76881.09;;;-145.10;100.00
56334;BME280;42240;53.626;55.886;2022-11-15T04:55:48;76885.06;;;-145.10;100.00
56334;BME280;42240;53.626;55.886;2022-11-15T04:57:40;76865.28;;;-145.10;100.00
56334;BME280;42240;53.626;55.886;2022-11-15T04:59:31;76869.25;;;-145.10;100.00
56334;BME280;42240;53.626;55.886;2022-11-15T05:01:23;76859.34;;;-145.10;100.00
56334;BME280;42240;53.626;55.886;2022-11-15T05:03:14;76849.47;;;-145.10;100.00
56334;BME280;42240;53.626;55.886;2022-11-15T05:05:24;76861.34;;;-145.10;100.00
56334;BME280;42240;53.626;55.886;2022-11-15T05:07:16;76849.47;;;-145.10;100.00
56334;BME280;42240;53.626;55.886;2022-11-15T05:09:07;76857.38;;;-145.10;100.00
56334;BME280;42240;53.626;55.886;2022-11-15T05:10:59;76833.66;;;-145.10;100.00
56334;BME280;42240;53.626;55.886;2022-11-15T05:12:50;76843.53;;;-145.10;100.00
56334;BME280;42240;53.626;55.886;2022-11-15T05:14:42;76835.63;;;-145.10;100.00
56334;BME280;42240;53.626;55.886;2022-11-15T05:16:35;76825.72;;;-145.10;100.00
56334;BME280;42240;53.626;55.886;2022-11-15T05:18:27;76817.81;;;-145.10;100.00
56334;BME280;42240;53.626;55.886;2022-11-15T05:20:18;76809.91;;;-145.10;100.00
56334;BME280;42240;53.626;55.886;2022-11-15T05:22:10;76800.03;;;-145.10;100.00
56334;BME280;42240;53.626;55.886;2022-11-15T05:24:02;76788.16;;;-145.10;100.00
56334;BME280;42240;53.626;55.886;2022-11-15T05:25:53;76798.03;;;-145.10;100.00
56334;BME280;42240;53.626;55.886;2022-11-15T05:27:49;76802.00;;;-145.10;100.00
56334;BME280;42240;53.626;55.886;2022-11-15T05:29:41;76788.16;;;-145.10;100.00
56334;BME280;42240;53.626;55.886;2022-11-15T05:31:39;76790.13;;;-145.10;100.00
56334;BME280;42240;53.626;55.886;2022-11-15T05:33:31;76766.41;;;-145.10;100.00
56334;BME280;42240;53.626;55.886;2022-11-15T05:35:45;76754.53;;;-145.10;100.00
56334;BME280;42240;53.626;55.886;2022-11-15T05:37:38;76744.66;;;-145.10;100.00
56334;BME280;42240;53.626;55.886;2022-11-15T05:39:29;76734.78;;;-145.10;100.00
56334;BME280;42240;53.626;55.886;2022-11-15T05:41:43;76742.69;;;-145.10;100.00
56334;BME280;42240;53.626;55.886;2022-11-15T05:43:37;76691.25;;;-145.10;100.00
56334;BME280;42240;53.626;55.886;2022-11-15T05:45:31;76663.59;;;-145.10;100.00
56334;BME280;42240;53.626;55.886;2022-11-15T05:47:27;76657.66;;;-145.10;100.00
56334;BME280;42240;53.626;55.886;2022-11-15T05:49:23;76643.81;;;-145.10;100.00
56334;BME280;42240;53.626;55.886;2022-11-15T05:51:17;76614.16;;;-145.10;100.00
56334;BME280;42240;53.626;55.886;2022-11-15T05:53:13;76612.16;;;-145.10;100.00
56334;BME280;42240;53.626;55.886;2022-11-15T05:55:07;76584.47;;;-145.10;100.00
56334;BME280;42240;53.626;55.886;2022-11-15T05:57:00;76622.06;;;-145.10;100.00
56334;BME280;42240;53.626;55.886;2022-11-15T05:58:53;76590.41;;;-145.10;100.00
56334;BME280;42240;53.626;55.886;2022-11-15T06:00:49;76594.38;;;-145.10;100.00
56334;BME280;42240;53.626;55.886;2022-11-15T06:02:41;76552.84;;;-145.10;100.00
56334;BME280;42240;53.626;55.886;2022-11-15T06:04:33;76576.56;;;-145.10;100.00
56334;BME280;42240;53.626;55.886;2022-11-15T06:06:24;76529.13;;;-145.10;100.00
56334;BME280;42240;53.626;55.886;2022-11-15T06:08:15;76568.66;;;-145.10;100.00
56334;BME280;42240;53.626;55.886;2022-11-15T06:10:07;76588.44;;;-145.10;100.00
56334;BME280;42240;53.626;55.886;2022-11-15T06:11:59;76608.22;;;-145.10;100.00
56334;BME280;42240;53.626;55.886;2022-11-15T06:13:50;76606.22;;;-145.10;100.00
56334;BME280;42240;53.626;55.886;2022-11-15T06:15:41;76610.19;;;-145.10;100.00
56334;BME280;42240;53.626;55.886;2022-11-15T06:17:33;76604.25;;;-145.10;100.00
56334;BME280;42240;53.626;55.886;2022-11-15T06:19:25;76639.84;;;-145.10;100.00
56334;BME280;42240;53.626;55.886;2022-11-15T06:21:16;76633.91;;;-145.10;100.00
56334;BME280;42240;53.626;55.886;2022-11-15T06:23:08;76622.06;;;-145.10;100.00
56334;BME280;42240;53.626;55.886;2022-11-15T06:24:59;76643.81;;;-145.10;100.00
56334;BME280;42240;53.626;55.886;2022-11-15T06:26:55;76624.03;;;-145.10;100.00
56334;BME280;42240;53.626;55.886;2022-11-15T06:28:48;76616.13;;;-145.10;100.00
56334;BME280;42240;53.626;55.886;2022-11-15T06:30:39;76657.66;;;-145.10;100.00
56334;BME280;42240;53.626;55.886;2022-11-15T06:32:31;76669.50;;;-145.10;100.00
56334;BME280;42240;53.626;55.886;2022-11-15T06:34:23;76651.72;;;-145.10;100.00
56334;BME280;42240;53.626;55.886;2022-11-15T06:36:14;76624.03;;;-145.10;100.00
56334;BME280;42240;53.626;55.886;2022-11-15T06:38:10;76624.03;;;-145.10;100.00
56334;BME280;42240;53.626;55.886;2022-11-15T06:40:02;76643.81;;;-145.10;100.00
56334;BME280;42240;53.626;55.886;2022-11-15T06:41:53;76628.00;;;-145.10;100.00
56334;BME280;42240;53.626;55.886;2022-11-15T06:43:45;76631.94;;;-145.10;100.00
56334;BME280;42240;53.626;55.886;2022-11-15T06:45:36;76631.94;;;-145.10;100.00
56334;BME280;42240;53.626;55.886;2022-11-15T06:47:28;76639.84;;;-145.10;100.00
56334;BME280;42240;53.626;55.886;2022-11-15T06:49:19;76651.72;;;-145.10;100.00
56334;BME280;42240;53.626;55.886;2022-11-15T06:51:11;76673.47;;;-145.10;100.00
56334;BME280;42240;53.626;55.886;2022-11-15T06:53:03;76687.31;;;-145.10;100.00
56334;BME280;42240;53.626;55.886;2022-11-15T06:54:55;76687.31;;;-145.10;100.00
56334;BME280;42240;53.626;55.886;2022-11-15T06:56:46;76689.28;;;-145.10;100.00
56334;BME280;42240;53.626;55.886;2022-11-15T06:58:38;76675.44;;;-145.10;100.00
56334;BME280;42240;53.626;55.886;2022-11-15T07:00:29;76683.34;;;-145.10;100.00
56334;BME280;42240;53.626;55.886;2022-11-15T07:02:21;76683.34;;;-145.10;100.00
56334;BME280;42240;53.626;55.886;2022-11-15T07:04:13;76675.44;;;-145.10;100.00
56334;BME280;42240;53.626;55.886;2022-11-15T07:06:04;76655.66;;;-145.10;100.00
56334;BME280;42240;53.626;55.886;2022-11-15T07:07:58;76669.50;;;-145.10;100.00
56334;BME280;42240;53.626;55.886;2022-11-15T07:09:50;76675.44;;;-145.10;100.00
56334;BME280;42240;53.626;55.886;2022-11-15T07:11:41;76663.59;;;-145.10;100.00
56334;BME280;42240;53.626;55.886;2022-11-15T07:13:33;76685.34;;;-145.10;100.00
56334;BME280;42240;53.626;55.886;2022-11-15T07:15:26;76657.66;;;-145.10;100.00
56334;BME280;42240;53.626;55.886;2022-11-15T07:17:17;76675.44;;;-145.10;100.00
56334;BME280;42240;53.626;55.886;2022-11-15T07:19:09;76655.66;;;-145.10;100.00
56334;BME280;42240;53.626;55.886;2022-11-15T07:21:04;76681.38;;;-145.10;100.00
56334;BME280;42240;53.626;55.886;2022-11-15T07:23:01;76691.25;;;-145.10;100.00
56334;BME280;42240;53.626;55.886;2022-11-15T07:24:53;76695.22;;;-145.10;100.00
56334;BME280;42240;53.626;55.886;2022-11-15T07:26:46;76689.28;;;-145.10;100.00
56334;BME280;42240;53.626;55.886;2022-11-15T07:28:37;76671.50;;;-145.10;100.00
56334;BME280;42240;53.626;55.886;2022-11-15T07:30:29;76683.34;;;-145.10;100.00
56334;BME280;42240;53.626;55.886;2022-11-15T07:32:20;76701.16;;;-145.10;100.00
56334;BME280;42240;53.626;55.886;2022-11-15T07:34:12;76707.09;;;-145.10;100.00
56334;BME280;42240;53.626;55.886;2022-11-15T07:36:05;76699.19;;;-145.10;100.00
56334;BME280;42240;53.626;55.886;2022-11-15T07:38:01;76687.31;;;-145.10;100.00
56334;BME280;42240;53.626;55.886;2022-11-15T07:39:52;76707.09;;;-145.10;100.00
56334;BME280;42240;53.626;55.886;2022-11-15T07:41:44;76673.47;;;-145.10;100.00
56334;BME280;42240;53.626;55.886;2022-11-15T07:43:36;76695.22;;;-145.10;100.00
56334;BME280;42240;53.626;55.886;2022-11-15T07:45:27;76703.13;;;-145.10;100.00
56334;BME280;42240;53.626;55.886;2022-11-15T07:47:19;76711.03;;;-145.10;100.00
56334;BME280;42240;53.626;55.886;2022-11-15T07:49:11;76687.31;;;-145.10;100.00
56334;BME280;42240;53.626;55.886;2022-11-15T07:51:02;76663.59;;;-145.10;100.00
56334;BME280;42240;53.626;55.886;2022-11-15T07:52:58;76675.44;;;-145.10;100.00
56334;BME280;42240;53.626;55.886;2022-11-15T07:54:50;76655.66;;;-145.10;100.00
56334;BME280;42240;53.626;55.886;2022-11-15T07:56:41;76620.06;;;-145.10;100.00
56334;BME280;42240;53.626;55.886;2022-11-15T07:58:33;76655.66;;;-145.10;100.00
56334;BME280;42240;53.626;55.886;2022-11-15T08:00:25;76631.94;;;-145.10;100.00
56334;BME280;42240;53.626;55.886;2022-11-15T08:02:16;76639.84;;;-145.10;100.00
56334;BME280;42240;53.626;55.886;2022-11-15T08:04:10;76626.00;;;-145.10;100.00
56334;BME280;42240;53.626;55.886;2022-11-15T08:06:02;76622.06;;;-145.10;100.00
56334;BME280;42240;53.626;55.886;2022-11-15T08:07:57;76653.69;;;-145.10;100.00
56334;BME280;42240;53.626;55.886;2022-11-15T08:09:49;76651.72;;;-145.10;100.00
56334;BME280;42240;53.626;55.886;2022-11-15T08:11:41;76685.34;;;-145.10;100.00
56334;BME280;42240;53.626;55.886;2022-11-15T08:13:32;76732.78;;;-145.10;100.00
56334;BME280;42240;53.626;55.886;2022-11-15T08:15:25;76742.69;;;-145.10;100.00
56334;BME280;42240;53.626;55.886;2022-11-15T08:17:17;76758.50;;;-145.10;100.00
56334;BME280;42240;53.626;55.886;2022-11-15T08:19:08;76788.16;;;-145.10;100.00
56334;BME280;42240;53.626;55.886;2022-11-15T08:21:03;76788.16;;;-145.10;100.00
56334;BME280;42240;53.626;55.886;2022-11-15T08:22:56;76803.97;;;-145.10;100.00
56334;BME280;42240;53.626;55.886;2022-11-15T08:24:48;76802.00;;;-145.10;100.00
56334;BME280;42240;53.626;55.886;2022-11-15T08:26:39;76815.84;;;-145.10;100.00
56334;BME280;42240;53.626;55.886;2022-11-15T08:28:32;76827.72;;;-145.10;100.00
56334;BME280;42240;53.626;55.886;2022-11-15T08:30:23;76833.66;;;-145.10;100.00
56334;BME280;42240;53.626;55.886;2022-11-15T08:32:15;76845.50;;;-145.10;100.00
56334;BME280;42240;53.626;55.886;2022-11-15T08:34:07;76849.47;;;-145.10;100.00
56334;BME280;42240;53.626;55.886;2022-11-15T08:36:00;76859.34;;;-145.10;100.00
56334;BME280;42240;53.626;55.886;2022-11-15T08:37:52;76853.41;;;-145.10;100.00
56334;BME280;42240;53.626;55.886;2022-11-15T08:39:44;76865.28;;;-145.10;100.00
56334;BME280;42240;53.626;55.886;2022-11-15T08:41:37;76871.22;;;-145.10;100.00
56334;BME280;42240;53.626;55.886;2022-11-15T08:43:28;76869.25;;;-145.10;100.00
56334;BME280;42240;53.626;55.886;2022-11-15T08:45:20;76865.28;;;-145.10;100.00
56334;BME280;42240;53.626;55.886;2022-11-15T08:47:12;76867.25;;;-145.10;100.00
56334;BME280;42240;53.626;55.886;2022-11-15T08:49:04;76869.25;;;-145.10;100.00
56334;BME280;42240;53.626;55.886;2022-11-15T08:50:56;76875.16;;;-145.10;100.00
56334;BME280;42240;53.626;55.886;2022-11-15T08:52:47;76869.25;;;-145.10;100.00
56334;BME280;42240;53.626;55.886;2022-11-15T08:54:39;76879.13;;;-145.10;100.00
56334;BME280;42240;53.626;55.886;2022-11-15T08:56:31;76900.88;;;-145.10;100.00
56334;BME280;42240;53.626;55.886;2022-11-15T08:58:22;76892.97;;;-145.10;100.00
56334;BME280;42240;53.626;55.886;2022-11-15T09:00:14;76891.00;;;-145.10;100.00
56334;BME280;42240;53.626;55.886;2022-11-15T09:02:05;76908.78;;;-145.10;100.00
56334;BME280;42240;53.626;55.886;2022-11-15T09:03:57;76896.94;;;-145.10;100.00
56334;BME280;42240;53.626;55.886;2022-11-15T09:05:49;76902.84;;;-145.10;100.00
56334;BME280;42240;53.626;55.886;2022-11-15T09:07:44;76908.78;;;-145.10;100.00
56334;BME280;42240;53.626;55.886;2022-11-15T09:09:37;76914.72;;;-145.10;100.00
56334;BME280;42240;53.626;55.886;2022-11-15T09:11:28;76932.53;;;-145.10;100.00
56334;BME280;42240;53.626;55.886;2022-11-15T09:13:20;76916.69;;;-145.10;100.00
56334;BME280;42240;53.626;55.886;2022-11-15T09:15:12;76926.59;;;-145.10;100.00
56334;BME280;42240;53.626;55.886;2022-11-15T09:17:07;76942.41;;;-145.10;100.00
56334;BME280;42240;53.626;55.886;2022-11-15T09:19:00;76914.72;;;-145.10;100.00
56334;BME280;42240;53.626;55.886;2022-11-15T09:20:55;76918.69;;;-145.10;100.00
56334;BME280;42240;53.626;55.886;2022-11-15T09:22:47;76932.53;;;-145.10;100.00
56334;BME280;42240;53.626;55.886;2022-11-15T09:24:39;76926.59;;;-145.10;100.00
56334;BME280;42240;53.626;55.886;2022-11-15T09:26:30;76928.56;;;-145.10;100.00
56334;BME280;42240;53.626;55.886;2022-11-15T09:28:22;76936.47;;;-145.10;100.00
56334;BME280;42240;53.626;55.886;2022-11-15T09:30:14;76964.16;;;-145.10;100.00
56334;BME280;42240;53.626;55.886;2022-11-15T09:32:06;76964.16;;;-145.10;100.00
56334;BME280;42240;53.626;55.886;2022-11-15T09:33:57;76976.03;;;-145.10;100.00
56334;BME280;42240;53.626;55.886;2022-11-15T09:35:49;76983.94;;;-145.10;100.00
56334;BME280;42240;53.626;55.886;2022-11-15T09:37:40;76976.03;;;-145.10;100.00
56334;BME280;42240;53.626;55.886;2022-11-15T09:39:32;76962.19;;;-145.10;100.00
56334;BME280;42240;53.626;55.886;2022-11-15T09:41:41;76968.13;;;-145.10;100.00
56334;BME280;42240;53.626;55.886;2022-11-15T09:43:44;76966.13;;;-145.10;100.00
56334;BME280;42240;53.626;55.886;2022-11-15T09:46:02;76972.06;;;-145.10;100.00
56334;BME280;42240;53.626;55.886;2022-11-15T09:50:26;76991.84;;;-145.10;100.00
56334;BME280;42240;53.626;55.886;2022-11-15T09:52:02;77023.50;;;-145.10;100.00
56334;BME280;42240;53.626;55.886;2022-11-15T09:53:50;77001.72;;;-145.10;100.00
56334;BME280;42240;53.626;55.886;2022-11-15T09:55:58;76991.84;;;-145.10;100.00
56334;BME280;42240;53.626;55.886;2022-11-15T10:00:18;76974.06;;;-145.10;100.00
56334;BME280;42240;53.626;55.886;2022-11-15T10:04:23;76999.75;;;-145.10;100.00
56334;BME280;42240;53.626;55.886;2022-11-15T10:06:02;76987.88;;;-145.10;100.00
56334;BME280;42240;53.626;55.886;2022-11-15T10:08:02;76991.84;;;-145.10;100.00